createdAt,value
2023-01-01T00:02:07.890Z,4.70
2023-01-01T00:04:35.000Z,3.45
2023-01-01T00:07:01.944Z,2.85
2023-01-01T00:09:47.059Z,4.68
2023-01-01T00:12:13.915Z,7.05
2023-01-01T00:14:43.018Z,2.50
2023-01-01T00:17:10.560Z,3.25
2023-01-01T00:19:37.349Z,6.90
2023-01-01T00:22:27.892Z,5.03
2023-01-01T00:24:50.941Z,5.03
2023-01-01T00:27:17.715Z,4.28
2023-01-01T00:29:44.536Z,4.78
2023-01-01T00:32:15.428Z,3.80
2023-01-01T00:34:45.968Z,4.20
2023-01-01T00:37:15.001Z,4.40
2023-01-01T00:39:41.886Z,12.63
2023-01-01T00:42:08.540Z,9.77
2023-01-01T00:44:35.272Z,10.38
2023-01-01T00:47:02.072Z,8.70
2023-01-01T00:49:28.837Z,6.35
2023-01-01T00:51:55.783Z,9.52
2023-01-01T00:54:22.528Z,8.45
2023-01-01T00:56:49.374Z,7.25
2023-01-01T00:59:16.068Z,11.38
2023-01-01T01:01:42.904Z,15.90
2023-01-01T01:04:09.680Z,8.55
2023-01-01T01:06:36.620Z,13.30
2023-01-01T01:09:04.587Z,12.35
2023-01-01T01:11:31.443Z,13.65
2023-01-01T01:13:58.290Z,16.80
2023-01-01T01:16:28.249Z,11.23
2023-01-01T01:19:01.979Z,15.20
2023-01-01T01:21:30.506Z,9.93
2023-01-01T01:23:59.878Z,12.68
2023-01-01T01:26:30.873Z,9.57
2023-01-01T01:28:58.793Z,10.70
2023-01-01T01:31:29.395Z,8.65
2023-01-01T01:33:57.217Z,5.35
2023-01-01T01:36:24.942Z,10.10
2023-01-01T01:38:52.144Z,8.95
2023-01-01T01:41:27.847Z,9.70
2023-01-01T01:44:02.359Z,17.48
2023-01-01T01:46:34.822Z,14.25
2023-01-01T01:49:06.693Z,6.45
2023-01-01T01:51:39.238Z,8.02
2023-01-01T01:54:15.355Z,10.10
2023-01-01T01:56:49.856Z,11.23
2023-01-01T01:59:19.831Z,11.15
2023-01-01T02:01:46.635Z,11.95
2023-01-01T02:04:14.095Z,7.00
2023-01-01T02:06:41.036Z,9.38
2023-01-01T02:09:09.233Z,11.02
2023-01-01T02:11:36.101Z,5.18
2023-01-01T02:14:03.997Z,8.45
2023-01-01T02:16:44.846Z,7.72
2023-01-01T02:19:37.859Z,6.32
2023-01-01T02:22:33.058Z,8.57
2023-01-01T02:25:08.449Z,4.63
2023-01-01T02:27:44.335Z,5.78
2023-01-01T02:30:12.123Z,7.10
2023-01-01T02:32:46.394Z,7.30
2023-01-01T02:35:38.738Z,6.93
2023-01-01T02:38:10.492Z,8.18
2023-01-01T02:40:43.031Z,9.43
2023-01-01T02:43:09.835Z,16.80
2023-01-01T02:45:36.683Z,9.27
2023-01-01T02:48:05.507Z,4.38
2023-01-01T02:50:33.515Z,6.60
2023-01-01T02:53:15.971Z,9.25
2023-01-01T02:56:19.518Z,5.28
2023-01-01T02:59:35.417Z,4.78
2023-01-01T03:02:24.028Z,6.43
2023-01-01T03:05:03.852Z,6.22
2023-01-01T03:07:38.300Z,3.13
2023-01-01T03:10:15.482Z,3.88
2023-01-01T03:13:07.736Z,4.93
2023-01-01T03:15:48.235Z,8.63
2023-01-01T03:18:22.537Z,9.40
2023-01-01T03:20:51.728Z,6.95
2023-01-01T03:23:25.070Z,6.50
2023-01-01T03:25:57.569Z,3.00
2023-01-01T03:28:30.241Z,9.18
2023-01-01T03:30:58.795Z,9.63
2023-01-01T03:33:40.409Z,6.68
2023-01-01T03:36:18.189Z,12.00
2023-01-01T03:38:59.127Z,10.60
2023-01-01T03:41:54.882Z,7.43
2023-01-01T03:44:34.015Z,8.77
2023-01-01T03:47:02.375Z,12.88
2023-01-01T03:49:30.908Z,7.85
2023-01-01T03:52:17.097Z,8.90
2023-01-01T03:55:10.333Z,9.20
2023-01-01T03:57:38.723Z,4.97
2023-01-01T04:00:09.690Z,6.00
2023-01-01T04:03:02.063Z,5.00
2023-01-01T04:05:30.822Z,7.72
2023-01-01T04:08:02.087Z,6.82
2023-01-01T04:10:31.428Z,4.57
2023-01-01T04:12:58.651Z,5.47
2023-01-01T04:15:27.808Z,6.90
2023-01-01T04:17:54.984Z,4.55
2023-01-01T04:20:23.142Z,6.30
2023-01-01T04:22:49.983Z,6.00
2023-01-01T04:25:17.532Z,6.13
2023-01-01T04:27:44.524Z,7.57
2023-01-01T04:30:13.808Z,9.10
2023-01-01T04:32:40.676Z,6.65
2023-01-01T04:35:09.408Z,7.43
2023-01-01T04:37:36.558Z,6.95
2023-01-01T04:40:04.353Z,5.97
2023-01-01T04:42:31.118Z,6.25
2023-01-01T04:44:57.996Z,7.22
2023-01-01T04:47:26.895Z,6.80
2023-01-01T04:49:54.314Z,7.32
2023-01-01T04:52:21.967Z,6.45
2023-01-01T04:54:48.708Z,5.03
2023-01-01T04:57:15.647Z,9.70
2023-01-01T04:59:42.411Z,6.07
2023-01-01T05:02:09.219Z,7.93
2023-01-01T05:04:36.105Z,5.10
2023-01-01T05:07:02.880Z,6.93
2023-01-01T05:09:31.732Z,5.82
2023-01-01T05:11:58.573Z,3.33
2023-01-01T05:14:26.582Z,3.45
2023-01-01T05:16:53.647Z,4.45
2023-01-01T05:19:20.581Z,5.10
2023-01-01T05:21:47.308Z,6.13
2023-01-01T05:24:14.331Z,5.15
2023-01-01T05:26:43.206Z,6.00
2023-01-01T05:29:15.943Z,4.50
2023-01-01T05:31:44.894Z,4.78
2023-01-01T05:34:11.947Z,3.33
2023-01-01T05:36:39.385Z,6.53
2023-01-01T05:39:12.578Z,4.70
2023-01-01T05:41:40.555Z,8.68
2023-01-01T05:44:09.072Z,8.10
2023-01-01T05:46:36.477Z,9.95
2023-01-01T05:49:04.117Z,4.25
2023-01-01T05:53:59.184Z,4.15
2023-01-01T05:56:27.365Z,8.77
2023-01-01T05:58:55.056Z,5.82
2023-01-01T06:01:23.490Z,4.05
2023-01-01T06:03:51.844Z,4.68
2023-01-01T06:06:21.438Z,6.97
2023-01-01T06:08:53.228Z,5.25
2023-01-01T06:11:20.613Z,4.47
2023-01-01T06:13:51.276Z,4.40
2023-01-01T06:16:18.178Z,5.13
2023-01-01T06:18:45.197Z,4.57
2023-01-01T06:21:20.676Z,5.45
2023-01-01T06:23:47.585Z,7.07
2023-01-01T06:26:17.340Z,9.40
2023-01-01T06:28:45.100Z,7.50
2023-01-01T06:31:15.289Z,6.65
2023-01-01T06:33:43.410Z,4.60
2023-01-01T06:36:12.731Z,8.57
2023-01-01T06:38:42.035Z,5.05
2023-01-01T06:41:12.401Z,6.43
2023-01-01T06:43:39.292Z,4.93
2023-01-01T06:46:27.183Z,7.25
2023-01-01T06:49:00.143Z,4.90
2023-01-01T06:51:29.851Z,5.15
2023-01-01T06:53:59.938Z,4.40
2023-01-01T06:56:27.050Z,7.43
2023-01-01T06:58:53.900Z,5.43
2023-01-01T07:01:24.119Z,4.22
2023-01-01T07:03:52.977Z,7.03
2023-01-01T07:06:20.651Z,11.27
2023-01-01T07:08:47.623Z,10.23
2023-01-01T07:11:14.711Z,4.43
2023-01-01T07:13:41.564Z,8.13
2023-01-01T07:16:13.058Z,7.07
2023-01-01T07:18:41.382Z,6.70
2023-01-01T07:21:31.878Z,9.43
2023-01-01T07:24:00.600Z,8.75
2023-01-01T07:26:29.067Z,9.02
2023-01-01T07:29:00.953Z,11.40
2023-01-01T07:31:33.208Z,9.95
2023-01-01T07:33:59.960Z,11.73
2023-01-01T07:36:26.756Z,9.13
2023-01-01T07:38:54.854Z,9.40
2023-01-01T07:41:21.580Z,5.10
2023-01-01T07:43:48.288Z,9.95
2023-01-01T07:46:16.559Z,6.60
2023-01-01T07:48:43.464Z,5.45
2023-01-01T07:51:10.311Z,6.80
2023-01-01T07:53:37.111Z,8.57
2023-01-01T07:56:03.991Z,7.70
2023-01-01T07:58:31.340Z,9.65
2023-01-01T08:00:58.168Z,8.82
2023-01-01T08:03:24.912Z,10.93
2023-01-01T08:05:52.228Z,5.78
2023-01-01T08:08:18.884Z,8.05
2023-01-01T08:10:45.746Z,10.90
2023-01-01T08:13:12.524Z,4.47
2023-01-01T08:15:39.417Z,5.00
2023-01-01T08:18:06.349Z,8.27
2023-01-01T08:20:33.731Z,5.20
2023-01-01T08:23:07.195Z,4.75
2023-01-01T08:25:35.125Z,6.60
2023-01-01T08:28:01.851Z,6.15
2023-01-01T08:30:28.880Z,3.87
2023-01-01T08:32:55.753Z,4.28
2023-01-01T08:35:22.756Z,5.82
2023-01-01T08:37:49.405Z,7.35
2023-01-01T08:40:17.281Z,7.17
2023-01-01T08:42:44.024Z,3.93
2023-01-01T08:45:11.020Z,5.00
2023-01-01T08:47:37.844Z,6.77
2023-01-01T08:50:04.881Z,8.10
2023-01-01T08:52:32.115Z,3.50
2023-01-01T08:54:58.993Z,4.03
2023-01-01T08:57:26.040Z,6.90
2023-01-01T08:59:52.755Z,1.93
2023-01-01T09:02:19.631Z,4.67
2023-01-01T09:04:46.449Z,4.37
2023-01-01T09:07:13.156Z,4.73
2023-01-01T09:09:39.872Z,5.30
2023-01-01T09:12:08.477Z,2.57
2023-01-01T09:14:35.271Z,5.17
2023-01-01T09:17:02.724Z,3.57
2023-01-01T09:19:29.574Z,3.30
2023-01-01T09:21:56.465Z,2.93
2023-01-01T09:24:23.855Z,7.27
2023-01-01T09:26:50.698Z,4.67
2023-01-01T09:29:21.794Z,3.80
2023-01-01T09:31:49.460Z,2.77
2023-01-01T09:34:18.098Z,3.93
2023-01-01T09:36:45.561Z,4.50
2023-01-01T09:39:14.535Z,2.17
2023-01-01T09:41:53.323Z,4.00
2023-01-01T09:44:19.905Z,4.93
2023-01-01T09:46:47.502Z,6.27
2023-01-01T09:49:33.015Z,3.20
2023-01-01T09:52:05.254Z,3.70
2023-01-01T09:54:44.723Z,6.13
2023-01-01T09:57:19.795Z,3.77
2023-01-01T09:59:47.341Z,6.03
2023-01-01T10:02:31.697Z,5.33
2023-01-01T10:05:13.936Z,5.27
2023-01-01T10:10:21.328Z,7.97
2023-01-01T10:13:11.654Z,8.83
2023-01-01T10:15:44.042Z,3.13
2023-01-01T10:18:19.817Z,4.13
2023-01-01T10:20:59.685Z,4.37
2023-01-01T10:23:39.550Z,6.80
2023-01-01T10:26:16.860Z,3.87
2023-01-01T10:29:03.948Z,4.43
2023-01-01T10:31:36.409Z,3.57
2023-01-01T10:34:19.273Z,3.53
2023-01-01T10:36:47.140Z,3.37
2023-01-01T10:39:18.492Z,6.07
2023-01-01T10:41:45.661Z,1.37
2023-01-01T10:44:15.636Z,3.87
2023-01-01T10:46:47.980Z,2.83
2023-01-01T10:49:16.539Z,2.83
2023-01-01T10:51:46.409Z,4.00
2023-01-01T10:54:40.168Z,2.90
2023-01-01T10:57:20.652Z,1.10
2023-01-01T10:59:53.915Z,4.47
2023-01-01T11:02:26.610Z,2.40
2023-01-01T11:05:21.507Z,3.37
2023-01-01T11:07:49.883Z,2.93
2023-01-01T11:10:34.896Z,3.10
2023-01-01T11:13:05.330Z,3.33
2023-01-01T11:15:40.519Z,3.80
2023-01-01T11:18:22.840Z,2.37
2023-01-01T11:20:58.323Z,3.73
2023-01-01T11:23:32.080Z,1.37
2023-01-01T11:26:00.673Z,2.63
2023-01-01T11:28:32.025Z,3.93
2023-01-01T11:31:20.368Z,3.67
2023-01-01T11:33:55.479Z,2.63
2023-01-01T11:36:28.401Z,1.43
2023-01-01T11:39:26.999Z,3.90
2023-01-01T11:41:56.485Z,3.13
2023-01-01T11:44:44.776Z,3.43
2023-01-01T11:47:23.597Z,2.33
2023-01-01T11:50:11.769Z,3.33
2023-01-01T11:52:40.626Z,4.43
2023-01-01T11:55:20.835Z,1.43
2023-01-01T11:58:04.574Z,5.20
2023-01-01T12:00:35.834Z,3.07
2023-01-01T12:03:24.691Z,3.20
2023-01-01T12:06:13.394Z,2.27
2023-01-01T12:08:46.856Z,2.90
2023-01-01T12:11:27.122Z,1.70
2023-01-01T12:14:01.623Z,2.00
2023-01-01T12:16:44.659Z,8.37
2023-01-01T12:19:26.070Z,2.00
2023-01-01T12:21:57.537Z,3.17
2023-01-01T12:24:32.343Z,2.93
2023-01-01T12:27:19.215Z,4.10
2023-01-01T12:29:57.990Z,2.13
2023-01-01T12:32:36.521Z,2.40
2023-01-01T12:35:40.056Z,3.07
2023-01-01T12:38:35.355Z,1.87
2023-01-01T12:41:10.050Z,1.47
2023-01-01T12:43:36.922Z,2.37
2023-01-01T12:46:23.849Z,2.40
2023-01-01T12:48:58.096Z,3.80
2023-01-01T12:51:27.715Z,3.33
2023-01-01T12:54:26.665Z,2.20
2023-01-01T12:57:11.063Z,10.80
2023-01-01T12:59:44.055Z,10.37
2023-01-01T13:02:23.279Z,3.53
2023-01-01T13:04:56.413Z,3.27
2023-01-01T13:07:39.862Z,3.37
2023-01-01T13:10:29.667Z,3.57
2023-01-01T13:12:56.947Z,4.30
2023-01-01T13:15:38.107Z,2.93
2023-01-01T13:18:14.852Z,3.43
2023-01-01T13:20:54.356Z,4.00
2023-01-01T13:23:30.049Z,2.10
2023-01-01T13:26:18.926Z,2.27
2023-01-01T13:28:56.261Z,1.90
2023-01-01T13:31:38.530Z,2.97
2023-01-01T13:34:31.651Z,3.93
2023-01-01T13:37:10.983Z,4.20
2023-01-01T13:39:54.321Z,2.47
2023-01-01T13:42:42.936Z,1.80
2023-01-01T13:45:36.560Z,2.97
2023-01-01T13:48:48.570Z,4.03
2023-01-01T13:52:03.064Z,2.70
2023-01-01T13:54:39.986Z,2.67
2023-01-01T13:57:29.586Z,2.20
2023-01-01T14:00:21.309Z,2.53
2023-01-01T14:03:17.163Z,7.87
2023-01-01T14:05:53.631Z,2.93
2023-01-01T14:08:35.486Z,2.00
2023-01-01T14:11:16.645Z,2.50
2023-01-01T14:13:43.510Z,0.83
2023-01-01T14:16:13.848Z,1.13
2023-01-01T14:18:53.700Z,3.20
2023-01-01T14:21:24.348Z,0.73
2023-01-01T14:24:08.545Z,1.13
2023-01-01T14:26:39.096Z,2.17
2023-01-01T14:29:08.745Z,2.57
2023-01-01T14:31:42.588Z,1.87
2023-01-01T14:34:29.611Z,1.50
2023-01-01T14:37:04.869Z,1.10
2023-01-01T14:39:36.310Z,1.87
2023-01-01T14:42:09.041Z,3.07
2023-01-01T14:44:39.697Z,1.57
2023-01-01T14:47:29.274Z,4.43
2023-01-01T14:50:03.196Z,2.07
2023-01-01T14:52:31.439Z,1.20
2023-01-01T14:55:00.542Z,1.60
2023-01-01T14:57:37.209Z,2.30
2023-01-01T15:00:25.016Z,5.77
2023-01-01T15:02:52.020Z,2.23
2023-01-01T15:05:35.404Z,1.07
2023-01-01T15:08:06.339Z,1.20
2023-01-01T15:10:37.335Z,4.63
2023-01-01T15:13:07.990Z,3.83
2023-01-01T15:15:37.356Z,3.40
2023-01-01T15:18:04.388Z,2.00
2023-01-01T15:20:32.010Z,1.63
2023-01-01T15:23:03.487Z,1.80
2023-01-01T15:25:37.561Z,2.90
2023-01-01T15:28:05.120Z,2.00
2023-01-01T15:30:34.060Z,1.37
2023-01-01T15:33:09.755Z,0.93
2023-01-01T15:35:38.189Z,1.47
2023-01-01T15:38:20.664Z,1.73
2023-01-01T15:40:52.910Z,4.43
2023-01-01T15:43:25.895Z,3.17
2023-01-01T15:45:56.606Z,5.90
2023-01-01T15:48:37.464Z,2.60
2023-01-01T15:51:27.075Z,3.40
2023-01-01T15:53:59.747Z,2.13
2023-01-01T15:56:32.316Z,0.90
2023-01-01T15:59:09.561Z,1.80
2023-01-01T16:01:39.819Z,2.33
2023-01-01T16:04:18.435Z,2.27
2023-01-01T16:06:52.995Z,1.70
2023-01-01T16:09:21.080Z,1.80
2023-01-01T16:11:57.095Z,3.50
2023-01-01T16:14:25.883Z,1.00
2023-01-01T16:17:00.809Z,1.47
2023-01-01T16:19:30.613Z,3.27
2023-01-01T16:21:57.436Z,3.40
2023-01-01T16:24:24.587Z,2.90
2023-01-01T16:26:51.626Z,1.63
2023-01-01T16:29:18.531Z,2.53
2023-01-01T16:31:47.441Z,2.53
2023-01-01T16:34:14.978Z,1.53
2023-01-01T16:36:43.216Z,4.33
2023-01-01T16:39:10.399Z,3.07
2023-01-01T16:41:40.611Z,4.40
2023-01-01T16:44:09.417Z,2.07
2023-01-01T16:46:36.237Z,2.53
2023-01-01T16:49:04.622Z,1.77
2023-01-01T16:51:32.436Z,4.77
2023-01-01T16:54:01.089Z,2.87
2023-01-01T16:56:28.570Z,3.33
2023-01-01T16:59:02.739Z,4.53
2023-01-01T17:01:31.336Z,2.83
2023-01-01T17:03:59.039Z,0.90
2023-01-01T17:06:26.072Z,2.43
2023-01-01T17:08:52.920Z,2.70
2023-01-01T17:11:20.593Z,2.63
2023-01-01T17:13:48.111Z,1.77
2023-01-01T17:16:25.221Z,2.57
2023-01-01T17:19:14.544Z,2.37
2023-01-01T17:21:43.081Z,7.83
2023-01-01T17:24:10.330Z,6.77
2023-01-01T17:26:37.047Z,1.87
2023-01-01T17:29:05.118Z,2.67
2023-01-01T17:31:32.059Z,1.17
2023-01-01T17:33:58.995Z,2.20
2023-01-01T17:36:29.096Z,2.07
2023-01-01T17:38:56.673Z,3.73
2023-01-01T17:41:23.816Z,3.87
2023-01-01T17:43:51.808Z,1.43
2023-01-01T17:46:28.420Z,2.43
2023-01-01T17:48:56.367Z,1.87
2023-01-01T17:51:26.674Z,5.00
2023-01-01T17:53:54.958Z,2.53
2023-01-01T17:56:23.533Z,3.57
2023-01-01T17:58:53.329Z,4.27
2023-01-01T18:01:23.207Z,3.90
2023-01-01T18:03:52.323Z,2.17
2023-01-01T18:06:19.256Z,2.20
2023-01-01T18:08:46.524Z,1.97
2023-01-01T18:11:14.123Z,1.97
2023-01-01T18:13:41.007Z,2.67
2023-01-01T18:16:09.621Z,1.80
2023-01-01T18:18:40.421Z,2.77
2023-01-01T18:21:22.397Z,4.23
2023-01-01T18:23:54.289Z,2.40
2023-01-01T18:26:24.317Z,1.37
2023-01-01T18:28:55.884Z,2.97
2023-01-01T18:31:23.433Z,3.63
2023-01-01T18:33:50.585Z,2.97
2023-01-01T18:36:21.938Z,1.63
2023-01-01T18:39:09.555Z,1.80
2023-01-01T18:41:48.143Z,4.27
2023-01-01T18:44:22.285Z,2.40
2023-01-01T18:46:55.055Z,2.67
2023-01-01T18:49:25.202Z,2.10
2023-01-01T18:51:57.539Z,3.20
2023-01-01T18:54:25.406Z,2.00
2023-01-01T18:57:06.305Z,3.40
2023-01-01T18:59:33.257Z,2.57
2023-01-01T19:02:00.589Z,3.37
2023-01-01T19:04:27.565Z,4.10
2023-01-01T19:06:54.257Z,1.88
2023-01-01T19:09:24.398Z,3.17
2023-01-01T19:11:53.883Z,0.50
2023-01-01T19:14:23.536Z,3.90
2023-01-01T19:16:55.035Z,2.77
2023-01-01T19:19:23.696Z,2.22
2023-01-01T19:21:54.142Z,2.55
2023-01-01T19:24:24.354Z,0.85
2023-01-01T19:27:18.029Z,3.08
2023-01-01T19:29:46.699Z,3.55
2023-01-01T19:32:13.732Z,3.90
2023-01-01T19:34:40.524Z,4.53
2023-01-01T19:37:08.356Z,1.58
2023-01-01T19:39:35.583Z,2.38
2023-01-01T19:42:05.052Z,3.53
2023-01-01T19:44:35.730Z,1.27
2023-01-01T19:47:07.701Z,1.73
2023-01-01T19:49:34.722Z,4.18
2023-01-01T19:52:01.474Z,3.73
2023-01-01T19:54:28.183Z,4.27
2023-01-01T19:56:54.910Z,3.47
2023-01-01T19:59:22.748Z,6.53
2023-01-01T20:02:17.772Z,1.87
2023-01-01T20:04:38.895Z,2.63
2023-01-01T20:07:06.631Z,2.78
2023-01-01T20:09:33.536Z,2.72
2023-01-01T20:12:00.265Z,4.50
2023-01-01T20:14:27.264Z,1.83
2023-01-01T20:16:54.121Z,3.15
2023-01-01T20:19:20.842Z,0.40
2023-01-01T20:22:06.086Z,2.05
2023-01-01T20:24:32.959Z,3.35
2023-01-01T20:27:01.635Z,2.13
2023-01-01T20:29:28.505Z,4.00
2023-01-01T20:31:55.719Z,4.00
2023-01-01T20:34:23.693Z,3.55
2023-01-01T20:37:09.625Z,2.90
2023-01-01T20:39:38.439Z,3.65
2023-01-01T20:42:06.597Z,6.82
2023-01-01T20:44:33.327Z,2.53
2023-01-01T20:47:00.350Z,4.43
2023-01-01T20:49:28.031Z,3.63
2023-01-01T20:51:54.935Z,2.67
2023-01-01T20:54:22.869Z,2.45
2023-01-01T20:56:50.131Z,1.05
2023-01-01T20:59:35.738Z,3.80
2023-01-01T21:02:10.013Z,2.22
2023-01-01T21:04:38.929Z,3.53
2023-01-01T21:07:10.537Z,3.42
2023-01-01T21:09:38.756Z,2.25
2023-01-01T21:12:06.489Z,2.17
2023-01-01T21:14:34.448Z,2.05
2023-01-01T21:17:07.706Z,1.17
2023-01-01T21:19:34.503Z,2.42
2023-01-01T21:22:01.260Z,2.30
2023-01-01T21:24:33.407Z,2.17
2023-01-01T21:27:17.941Z,1.20
2023-01-01T21:29:47.144Z,1.33
2023-01-01T21:32:39.286Z,0.88
2023-01-01T21:35:38.776Z,2.35
2023-01-01T21:38:16.931Z,3.40
2023-01-01T21:40:46.726Z,2.10
2023-01-01T21:43:16.200Z,2.03
2023-01-01T21:45:46.008Z,3.65
2023-01-01T21:48:22.651Z,2.28
2023-01-01T21:50:53.805Z,2.97
2023-01-01T21:53:29.003Z,3.22
2023-01-01T21:55:57.420Z,4.25
2023-01-01T21:58:53.555Z,3.65
2023-01-01T22:01:21.872Z,3.92
2023-01-01T22:04:18.764Z,4.35
2023-01-01T22:06:48.535Z,5.03
2023-01-01T22:09:19.825Z,3.65
2023-01-01T22:11:47.610Z,4.43
2023-01-01T22:14:18.082Z,2.55
2023-01-01T22:16:49.504Z,1.45
2023-01-01T22:19:23.626Z,4.63
2023-01-01T22:21:52.333Z,1.70
2023-01-01T22:24:31.467Z,4.10
2023-01-01T22:27:15.823Z,2.92
2023-01-01T22:29:44.541Z,2.08
2023-01-01T22:32:22.967Z,2.17
2023-01-01T22:34:51.114Z,5.97
2023-01-01T22:37:21.761Z,3.17
2023-01-01T22:39:49.746Z,4.72
2023-01-01T22:42:19.670Z,3.53
2023-01-01T22:44:59.037Z,5.32
2023-01-01T22:47:34.018Z,3.42
2023-01-01T22:50:02.263Z,2.90
2023-01-01T22:52:29.539Z,4.68
2023-01-01T22:54:56.428Z,4.70
2023-01-01T22:57:23.297Z,3.70
2023-01-01T22:59:50.144Z,3.33
2023-01-01T23:02:16.921Z,5.65
2023-01-01T23:04:44.224Z,5.63
2023-01-01T23:07:14.537Z,5.82
2023-01-01T23:09:42.727Z,5.60
2023-01-01T23:12:09.913Z,3.28
2023-01-01T23:14:55.344Z,4.80
2023-01-01T23:17:22.252Z,6.32
2023-01-01T23:19:48.973Z,0.95
2023-01-01T23:22:17.719Z,5.00
2023-01-01T23:24:45.651Z,5.53
2023-01-01T23:27:15.027Z,3.90
2023-01-01T23:29:45.050Z,3.25
2023-01-01T23:32:13.610Z,7.28
2023-01-01T23:34:42.944Z,6.57
2023-01-01T23:37:10.756Z,3.10
2023-01-01T23:39:37.458Z,5.10
2023-01-01T23:42:04.156Z,3.97
2023-01-01T23:44:31.026Z,1.95
2023-01-01T23:46:59.515Z,4.25
2023-01-01T23:49:29.751Z,1.83
2023-01-01T23:51:56.641Z,3.67
2023-01-01T23:54:23.465Z,1.05
2023-01-01T23:56:50.359Z,3.92
2023-01-01T23:59:17.403Z,2.65
